createdAt,value
2023-03-14T00:00:36.549Z,933.44
2023-03-14T00:01:36.542Z,933.43
2023-03-14T00:02:36.565Z,933.52
2023-03-14T00:03:36.505Z,933.54
2023-03-14T00:04:36.496Z,933.61
2023-03-14T00:05:36.476Z,933.72
2023-03-14T00:06:36.463Z,933.62
2023-03-14T00:07:36.448Z,933.61
2023-03-14T00:08:36.436Z,933.74
2023-03-14T00:09:36.420Z,933.63
2023-03-14T00:10:36.409Z,933.68
2023-03-14T00:11:36.393Z,933.73
2023-03-14T00:12:36.386Z,933.75
2023-03-14T00:13:36.449Z,933.8
2023-03-14T00:14:36.364Z,933.78
2023-03-14T00:15:36.378Z,933.77
2023-03-14T00:16:36.327Z,933.74
2023-03-14T00:17:36.313Z,933.84
2023-03-14T00:18:36.318Z,933.8
2023-03-14T00:19:36.285Z,933.83
2023-03-14T00:20:36.273Z,933.71
2023-03-14T00:21:36.260Z,933.75
2023-03-14T00:22:36.247Z,933.76
2023-03-14T00:23:36.249Z,933.79
2023-03-14T00:24:36.217Z,933.79
2023-03-14T00:25:36.205Z,933.9
2023-03-14T00:26:36.193Z,933.91
2023-03-14T00:27:36.176Z,933.91
2023-03-14T00:28:36.160Z,933.99
2023-03-14T00:29:36.173Z,934.06
2023-03-14T00:30:36.134Z,934.09
2023-03-14T00:31:36.180Z,934.15
2023-03-14T00:32:36.114Z,934.17
2023-03-14T00:33:36.096Z,934.11
2023-03-14T00:34:36.083Z,934.1
2023-03-14T00:35:36.083Z,934.1
2023-03-14T00:36:36.051Z,934.01
2023-03-14T00:37:36.038Z,933.95
2023-03-14T00:38:36.022Z,933.89
2023-03-14T00:39:36.009Z,933.93
2023-03-14T00:40:35.995Z,934.01
2023-03-14T00:41:35.987Z,933.97
2023-03-14T00:42:35.966Z,934.06
2023-03-14T00:43:35.955Z,934.05
2023-03-14T00:44:35.944Z,934.06
2023-03-14T00:45:35.952Z,934.1
2023-03-14T00:46:35.942Z,934.06
2023-03-14T00:47:35.899Z,934.09
2023-03-14T00:48:35.890Z,934.15
2023-03-14T00:49:35.886Z,934.04
2023-03-14T00:50:35.862Z,934.05
2023-03-14T00:51:35.844Z,934.13
2023-03-14T00:52:35.829Z,934.13
2023-03-14T00:53:35.816Z,934.27
2023-03-14T00:54:35.801Z,934.25
2023-03-14T00:55:35.788Z,934.3
2023-03-14T00:56:35.773Z,934.37
2023-03-14T00:57:35.761Z,934.41
2023-03-14T00:58:35.746Z,934.43
2023-03-14T00:59:35.736Z,934.43
2023-03-14T01:00:35.722Z,934.36
2023-03-14T01:01:35.746Z,934.41
2023-03-14T01:02:35.726Z,934.46
2023-03-14T01:03:35.680Z,934.45
2023-03-14T01:04:35.740Z,934.4
2023-03-14T01:05:35.656Z,934.43
2023-03-14T01:06:35.638Z,934.31
2023-03-14T01:07:35.627Z,934.34
2023-03-14T01:08:35.612Z,934.28
2023-03-14T01:09:35.600Z,934.05
2023-03-14T01:10:35.585Z,934.3
2023-03-14T01:11:35.573Z,934.24
2023-03-14T01:12:35.556Z,934.28
2023-03-14T01:13:35.545Z,934.25
2023-03-14T01:14:35.532Z,934.17
2023-03-14T01:15:35.514Z,934.31
2023-03-14T01:16:35.592Z,934.25
2023-03-14T01:17:35.511Z,934.42
2023-03-14T01:18:35.476Z,934.42
2023-03-14T01:19:35.478Z,934.32
2023-03-14T01:20:35.448Z,934.34
2023-03-14T01:21:35.436Z,934.33
2023-03-14T01:22:35.421Z,934.3
2023-03-14T01:23:35.411Z,934.34
2023-03-14T01:24:35.395Z,934.39
2023-03-14T01:25:35.380Z,934.31
2023-03-14T01:26:35.377Z,934.32
2023-03-14T01:27:35.353Z,934.29
2023-03-14T01:28:35.341Z,934.31
2023-03-14T01:29:35.324Z,934.25
2023-03-14T01:30:35.312Z,934.22
2023-03-14T01:31:35.342Z,934.25
2023-03-14T01:32:35.326Z,934.23
2023-03-14T01:33:35.299Z,934.22
2023-03-14T01:34:35.258Z,934.25
2023-03-14T01:35:35.264Z,934.2
2023-03-14T01:36:35.230Z,934.26
2023-03-14T01:37:35.214Z,934.24
2023-03-14T01:38:35.207Z,934.28
2023-03-14T01:39:35.186Z,934.27
2023-03-14T01:40:35.190Z,934.2
2023-03-14T01:41:35.158Z,934.17
2023-03-14T01:42:35.149Z,934.13
2023-03-14T01:43:35.141Z,934.1
2023-03-14T01:44:35.119Z,934.17
2023-03-14T01:45:35.119Z,934.22
2023-03-14T01:46:35.096Z,934.18
2023-03-14T01:47:35.076Z,934.12
2023-03-14T01:48:35.090Z,934.06
2023-03-14T01:49:35.081Z,934.19
2023-03-14T01:50:35.038Z,934.22
2023-03-14T01:51:35.035Z,934.2
2023-03-14T01:52:35.010Z,934.21
2023-03-14T01:53:35.008Z,934.13
2023-03-14T01:54:34.983Z,934.23
2023-03-14T01:55:34.965Z,934.21
2023-03-14T01:56:34.954Z,934.2
2023-03-14T01:57:34.938Z,934.35
2023-03-14T01:58:34.927Z,934.24
2023-03-14T01:59:34.910Z,934.27
2023-03-14T02:00:34.944Z,934.2
2023-03-14T02:01:34.886Z,934.2
2023-03-14T02:02:34.873Z,934.11
2023-03-14T02:03:34.878Z,934.19
2023-03-14T02:04:34.846Z,934.11
2023-03-14T02:05:34.934Z,934.06
2023-03-14T02:06:34.813Z,934.07
2023-03-14T02:07:34.805Z,934.15
2023-03-14T02:08:34.788Z,934.13
2023-03-14T02:09:34.775Z,934.05
2023-03-14T02:10:34.758Z,934.05
2023-03-14T02:11:34.744Z,934.04
2023-03-14T02:12:34.729Z,934.11
2023-03-14T02:13:34.714Z,933.99
2023-03-14T02:14:34.701Z,934
2023-03-14T02:15:34.690Z,933.89
2023-03-14T02:16:34.749Z,933.96
2023-03-14T02:17:34.667Z,933.96
2023-03-14T02:18:34.642Z,933.89
2023-03-14T02:19:34.628Z,933.83
2023-03-14T02:20:34.616Z,933.75
2023-03-14T02:21:34.629Z,933.73
2023-03-14T02:22:34.590Z,933.64
2023-03-14T02:23:34.578Z,933.78
2023-03-14T02:24:34.563Z,933.65
2023-03-14T02:25:34.553Z,933.68
2023-03-14T02:26:34.529Z,933.66
2023-03-14T02:27:34.514Z,933.62
2023-03-14T02:28:34.500Z,933.56
2023-03-14T02:29:34.488Z,933.56
2023-03-14T02:30:34.471Z,933.6
2023-03-14T02:31:34.502Z,933.55
2023-03-14T02:32:34.471Z,933.51
2023-03-14T02:33:34.429Z,933.48
2023-03-14T02:34:34.465Z,933.51
2023-03-14T02:35:34.450Z,933.45
2023-03-14T02:36:34.386Z,933.42
2023-03-14T02:37:34.401Z,933.31
2023-03-14T02:38:34.357Z,933.25
2023-03-14T02:39:34.343Z,933.32
2023-03-14T02:40:34.334Z,933.3
2023-03-14T02:41:34.319Z,933.24
2023-03-14T02:42:34.301Z,933.31
2023-03-14T02:43:34.289Z,933.4
2023-03-14T02:44:34.272Z,933.28
2023-03-14T02:45:34.296Z,933.48
2023-03-14T02:46:34.244Z,933.35
2023-03-14T02:47:34.230Z,933.24
2023-03-14T02:48:34.216Z,933.25
2023-03-14T02:49:34.202Z,933.31
2023-03-14T02:50:34.187Z,933.32
2023-03-14T02:51:34.175Z,933.34
2023-03-14T02:52:34.274Z,933.4
2023-03-14T02:53:34.287Z,933.51
2023-03-14T02:54:34.245Z,933.41
2023-03-14T02:55:34.234Z,933.38
2023-03-14T02:56:34.222Z,933.39
2023-03-14T02:57:34.204Z,933.42
2023-03-14T02:58:34.190Z,933.47
2023-03-14T02:59:34.176Z,933.44
2023-03-14T03:00:34.167Z,933.42
2023-03-14T03:01:34.207Z,933.42
2023-03-14T03:02:34.132Z,933.47
2023-03-14T03:03:34.194Z,933.35
2023-03-14T03:04:34.105Z,933.29
2023-03-14T03:05:34.089Z,933.3
2023-03-14T03:06:34.079Z,933.31
2023-03-14T03:07:34.076Z,933.28
2023-03-14T03:08:34.057Z,933.33
2023-03-14T03:09:34.944Z,933.35
2023-03-14T03:10:34.907Z,933.25
2023-03-14T03:11:34.889Z,933.26
2023-03-14T03:12:34.876Z,933.19
2023-03-14T03:13:34.861Z,933.17
2023-03-14T03:14:34.850Z,933.13
2023-03-14T03:15:34.840Z,933.19
2023-03-14T03:16:34.842Z,933.17
2023-03-14T03:17:34.804Z,933.13
2023-03-14T03:18:34.794Z,933.04
2023-03-14T03:19:34.779Z,933.01
2023-03-14T03:20:34.767Z,932.98
2023-03-14T03:21:34.753Z,932.94
2023-03-14T03:22:34.742Z,932.83
2023-03-14T03:23:34.726Z,932.89
2023-03-14T03:24:34.714Z,932.95
2023-03-14T03:25:34.751Z,932.72
2023-03-14T03:26:34.685Z,932.88
2023-03-14T03:27:34.706Z,932.81
2023-03-14T03:28:34.658Z,932.69
2023-03-14T03:29:34.645Z,932.75
2023-03-14T03:30:34.636Z,932.82
2023-03-14T03:31:34.615Z,932.63
2023-03-14T03:32:34.631Z,932.67
2023-03-14T03:33:34.592Z,932.64
2023-03-14T03:34:34.575Z,932.58
2023-03-14T03:35:34.588Z,932.68
2023-03-14T03:36:34.548Z,932.58
2023-03-14T03:37:34.534Z,932.69
2023-03-14T03:38:34.525Z,932.57
2023-03-14T03:39:34.504Z,932.54
2023-03-14T03:40:35.371Z,932.57
2023-03-14T03:41:35.431Z,932.62
2023-03-14T03:42:35.334Z,932.6
2023-03-14T03:43:35.317Z,932.72
2023-03-14T03:44:35.304Z,932.67
2023-03-14T03:45:35.289Z,932.8
2023-03-14T03:46:35.307Z,932.71
2023-03-14T03:47:35.274Z,932.71
2023-03-14T03:48:35.263Z,932.59
2023-03-14T03:49:35.237Z,932.59
2023-03-14T03:50:35.229Z,932.58
2023-03-14T03:51:35.212Z,932.58
2023-03-14T03:52:35.194Z,932.58
2023-03-14T03:53:35.180Z,932.58
2023-03-14T03:54:35.161Z,932.55
2023-03-14T03:55:35.148Z,932.68
2023-03-14T03:56:35.183Z,932.65
2023-03-14T03:57:35.140Z,932.7
2023-03-14T03:58:35.106Z,932.79
2023-03-14T03:59:35.096Z,932.7
2023-03-14T04:00:35.073Z,932.64
2023-03-14T04:01:35.126Z,932.65
2023-03-14T04:02:35.093Z,932.79
2023-03-14T04:03:35.064Z,932.82
2023-03-14T04:04:35.022Z,932.83
2023-03-14T04:05:35.005Z,932.91
2023-03-14T04:06:35.042Z,933.04
2023-03-14T04:07:34.978Z,932.9
2023-03-14T04:08:34.957Z,932.89
2023-03-14T04:09:34.944Z,932.83
2023-03-14T04:10:34.929Z,932.83
2023-03-14T04:11:34.914Z,932.77
2023-03-14T04:12:34.898Z,932.62
2023-03-14T04:13:34.909Z,932.8
2023-03-14T04:14:34.881Z,932.93
2023-03-14T04:15:34.936Z,932.78
2023-03-14T04:16:34.843Z,932.77
2023-03-14T04:17:34.828Z,932.76
2023-03-14T04:18:34.812Z,932.8
2023-03-14T04:19:34.799Z,932.79
2023-03-14T04:20:34.783Z,932.77
2023-03-14T04:21:34.772Z,932.7
2023-03-14T04:22:34.758Z,932.71
2023-03-14T04:23:34.742Z,932.72
2023-03-14T04:24:34.727Z,932.71
2023-03-14T04:25:34.714Z,932.69
2023-03-14T04:26:34.697Z,932.73
2023-03-14T04:27:34.684Z,932.83
2023-03-14T04:28:34.667Z,932.61
2023-03-14T04:45:41.777Z,932.38
2023-03-14T04:46:41.784Z,932.37
2023-03-14T04:47:41.719Z,932.5
2023-03-14T04:48:41.719Z,932.4
2023-03-14T04:49:41.685Z,932.34
2023-03-14T04:50:41.672Z,932.33
2023-03-14T04:51:41.658Z,932.24
2023-03-14T04:52:41.636Z,932.39
2023-03-14T04:53:41.618Z,932.26
2023-03-14T04:54:41.605Z,932.26
2023-03-14T04:55:41.587Z,932.23
2023-03-14T04:56:41.575Z,932.21
2023-03-14T04:57:41.555Z,932.09
2023-03-14T04:58:41.550Z,932.03
2023-03-14T04:59:41.523Z,932.11
2023-03-14T05:00:41.514Z,932.15
2023-03-14T05:01:41.533Z,932.09
2023-03-14T05:02:41.496Z,932.01
2023-03-14T05:03:41.468Z,932.12
2023-03-14T05:04:41.452Z,932.05
2023-03-14T05:05:41.431Z,931.88
2023-03-14T05:06:41.418Z,932.03
2023-03-14T05:07:41.400Z,932.1
2023-03-14T05:08:41.388Z,932.02
2023-03-14T05:09:41.370Z,931.97
2023-03-14T05:10:41.358Z,931.94
2023-03-14T05:11:41.344Z,931.99
2023-03-14T05:12:41.327Z,931.93
2023-03-14T05:13:41.311Z,931.92
2023-03-14T05:14:41.302Z,931.93
2023-03-14T05:15:41.283Z,931.81
2023-03-14T05:16:41.268Z,931.9
2023-03-14T05:17:41.285Z,931.76
2023-03-14T05:18:41.239Z,931.89
2023-03-14T05:19:41.224Z,931.85
2023-03-14T05:20:41.211Z,931.82
2023-03-14T05:21:41.198Z,931.78
2023-03-14T05:22:41.181Z,931.69
2023-03-14T05:23:41.164Z,931.75
2023-03-14T05:24:41.153Z,931.75
2023-03-14T05:25:41.151Z,931.92
2023-03-14T05:26:41.123Z,931.81
2023-03-14T05:27:41.105Z,931.85
2023-03-14T05:28:41.094Z,931.96
2023-03-14T05:29:41.077Z,931.78
2023-03-14T05:30:41.081Z,931.78
2023-03-14T05:31:41.170Z,931.75
2023-03-14T05:32:41.116Z,931.71
2023-03-14T05:33:41.045Z,931.81
2023-03-14T05:34:41.007Z,931.85
2023-03-14T05:35:41.033Z,931.84
2023-03-14T05:36:40.998Z,931.84
2023-03-14T05:37:40.966Z,931.87
2023-03-14T05:38:40.950Z,931.84
2023-03-14T05:39:40.944Z,931.95
2023-03-14T05:40:40.938Z,931.93
2023-03-14T05:41:40.926Z,931.7
2023-03-14T05:42:40.896Z,931.68
2023-03-14T05:43:40.887Z,931.7
2023-03-14T05:44:40.867Z,931.68
2023-03-14T05:45:40.875Z,931.72
2023-03-14T05:46:40.840Z,931.82
2023-03-14T05:47:40.825Z,931.79
2023-03-14T05:48:40.810Z,931.82
2023-03-14T05:49:40.828Z,931.73
2023-03-14T05:50:40.783Z,931.74
2023-03-14T05:51:40.770Z,931.72
2023-03-14T05:52:40.756Z,931.79
2023-03-14T05:53:40.748Z,931.74
2023-03-14T05:54:40.725Z,931.81
2023-03-14T05:55:40.718Z,931.78
2023-03-14T05:56:40.696Z,931.62
2023-03-14T05:57:40.686Z,931.92
2023-03-14T05:58:40.674Z,931.75
2023-03-14T05:59:40.654Z,931.77
2023-03-14T06:00:40.642Z,931.75
2023-03-14T06:01:40.641Z,931.88
2023-03-14T06:02:40.606Z,931.85
2023-03-14T06:03:40.607Z,931.83
2023-03-14T06:04:40.579Z,931.74
2023-03-14T06:05:40.708Z,931.73
2023-03-14T06:06:40.554Z,931.86
2023-03-14T06:07:40.538Z,931.81
2023-03-14T06:08:40.523Z,931.86
2023-03-14T06:09:40.527Z,931.9
2023-03-14T06:10:40.493Z,931.85
2023-03-14T06:11:40.480Z,931.85
2023-03-14T06:12:40.470Z,931.69
2023-03-14T06:13:40.456Z,931.83
2023-03-14T06:14:40.436Z,931.85
2023-03-14T06:15:40.426Z,931.8
2023-03-14T06:16:40.434Z,931.79
2023-03-14T06:17:40.404Z,931.82
2023-03-14T06:18:40.390Z,931.92
2023-03-14T06:19:40.368Z,931.88
2023-03-14T06:20:40.363Z,931.92
2023-03-14T06:21:40.365Z,931.99
2023-03-14T06:22:40.323Z,931.83
2023-03-14T06:23:40.322Z,931.89
2023-03-14T06:24:40.303Z,931.83
2023-03-14T06:25:40.294Z,931.96
2023-03-14T06:26:40.268Z,931.88
2023-03-14T06:27:40.254Z,931.96
2023-03-14T06:28:40.246Z,931.92
2023-03-14T06:29:40.225Z,931.9
2023-03-14T06:30:40.245Z,931.95
2023-03-14T06:31:40.199Z,931.89
2023-03-14T06:32:40.245Z,931.9
2023-03-14T06:33:40.171Z,931.96
2023-03-14T06:34:40.173Z,931.97
2023-03-14T06:35:40.198Z,931.96
2023-03-14T06:36:40.132Z,932.12
2023-03-14T06:37:40.138Z,931.95
2023-03-14T06:38:40.104Z,932.05
2023-03-14T06:39:40.093Z,932.01
2023-03-14T06:40:40.081Z,931.88
2023-03-14T06:41:40.063Z,932.18
2023-03-14T06:42:40.050Z,932
2023-03-14T06:43:40.032Z,932.07
2023-03-14T06:44:40.028Z,932.01
2023-03-14T06:45:40.045Z,932.02
2023-03-14T06:46:39.995Z,932.1
2023-03-14T06:47:39.981Z,932.08
2023-03-14T06:48:39.969Z,932.09
2023-03-14T06:49:39.949Z,932.12
2023-03-14T06:50:39.947Z,932.2
2023-03-14T06:51:39.921Z,932.13
2023-03-14T06:52:39.949Z,932.13
2023-03-14T06:53:39.916Z,932.2
2023-03-14T06:54:39.882Z,932.24
2023-03-14T06:55:39.867Z,932.18
2023-03-14T06:56:39.854Z,932.29
2023-03-14T06:57:39.838Z,932.18
2023-03-14T06:58:39.826Z,932.24
2023-03-14T06:59:39.813Z,932.26
2023-03-14T07:00:39.804Z,932.18
2023-03-14T07:01:39.830Z,932.32
2023-03-14T07:02:42.862Z,932.28
2023-03-14T07:03:39.754Z,932.29
2023-03-14T07:04:39.831Z,932.26
2023-03-14T07:05:39.728Z,932.31
2023-03-14T07:06:39.866Z,932.36
2023-03-14T07:07:39.697Z,932.3
2023-03-14T07:08:39.689Z,932.31
2023-03-14T07:09:39.741Z,932.36
2023-03-14T07:10:39.662Z,932.37
2023-03-14T07:11:40.009Z,932.38
2023-03-14T07:12:39.993Z,932.43
2023-03-14T07:13:39.978Z,932.38
2023-03-14T07:14:39.964Z,932.34
2023-03-14T07:15:39.970Z,932.39
2023-03-14T07:16:39.936Z,932.36
2023-03-14T07:17:39.922Z,932.38
2023-03-14T07:18:39.914Z,932.4
2023-03-14T07:19:39.898Z,932.4
2023-03-14T07:20:39.880Z,932.39
2023-03-14T07:21:39.874Z,932.4
2023-03-14T07:22:39.856Z,932.49
2023-03-14T07:23:39.852Z,932.46
2023-03-14T07:24:39.827Z,932.48
2023-03-14T07:25:39.879Z,932.49
2023-03-14T07:26:39.800Z,932.49
2023-03-14T07:27:39.812Z,932.48
2023-03-14T07:28:39.782Z,932.46
2023-03-14T07:29:39.761Z,932.43
2023-03-14T07:30:39.746Z,932.49
2023-03-14T07:31:39.733Z,932.41
2023-03-14T07:32:39.798Z,932.36
2023-03-14T07:33:39.716Z,932.48
2023-03-14T07:34:39.694Z,932.4
2023-03-14T07:35:39.712Z,932.43
2023-03-14T07:36:39.664Z,932.54
2023-03-14T07:37:39.670Z,932.5
2023-03-14T07:38:39.637Z,932.51
2023-03-14T07:39:39.627Z,932.51
2023-03-14T07:40:39.611Z,932.5
2023-03-14T07:41:39.703Z,932.54
2023-03-14T07:42:39.588Z,932.48
2023-03-14T07:43:39.573Z,932.41
2023-03-14T07:44:39.560Z,932.43
2023-03-14T07:45:42.879Z,932.56
2023-03-14T07:46:39.604Z,932.36
2023-03-14T07:47:39.519Z,932.44
2023-03-14T07:48:39.521Z,932.44
2023-03-14T07:49:39.500Z,932.34
2023-03-14T07:50:39.480Z,932.43
2023-03-14T07:51:39.468Z,932.37
2023-03-14T07:52:39.453Z,932.34
2023-03-14T07:53:39.442Z,932.33
2023-03-14T07:54:39.430Z,932.37
2023-03-14T07:55:39.415Z,932.3
2023-03-14T07:56:39.400Z,932.41
2023-03-14T07:57:39.439Z,932.27
2023-03-14T07:58:39.375Z,932.29
2023-03-14T07:59:39.363Z,932.27
2023-03-14T08:00:39.355Z,932.21
2023-03-14T08:01:39.339Z,932.32
2023-03-14T08:02:39.345Z,932.18
2023-03-14T08:03:39.348Z,932.22
2023-03-14T08:04:39.296Z,932.22
2023-03-14T08:05:39.282Z,932.18
2023-03-14T08:06:39.274Z,932.22
2023-03-14T08:07:39.257Z,932.29
2023-03-14T08:08:39.243Z,932.24
2023-03-14T08:09:39.232Z,932.19
2023-03-14T08:10:39.220Z,932.3
2023-03-14T08:11:39.208Z,932.26
2023-03-14T08:12:39.201Z,932.23
2023-03-14T08:13:39.235Z,932.26
2023-03-14T08:14:39.189Z,932.19
2023-03-14T08:15:39.154Z,932.26
2023-03-14T08:16:39.210Z,932.12
2023-03-14T08:17:39.129Z,932.23
2023-03-14T08:18:39.119Z,931.93
2023-03-14T08:19:39.103Z,932.07
2023-03-14T08:20:39.093Z,932.08
2023-03-14T08:21:39.078Z,932
2023-03-14T08:22:39.065Z,931.97
2023-03-14T08:23:39.053Z,932.02
2023-03-14T08:24:39.041Z,931.95
2023-03-14T08:25:39.093Z,931.9
2023-03-14T08:26:39.029Z,931.99
2023-03-14T08:27:39.001Z,931.98
2023-03-14T08:28:38.991Z,932.03
2023-03-14T08:29:39.022Z,931.92
2023-03-14T08:30:39.007Z,932.06
2023-03-14T08:31:39.013Z,932.12
2023-03-14T08:32:38.969Z,932.09
2023-03-14T08:33:38.944Z,932.02
2023-03-14T08:34:38.920Z,932
2023-03-14T08:35:38.901Z,932.03
2023-03-14T08:36:38.978Z,932.12
2023-03-14T08:37:38.906Z,931.96
2023-03-14T08:38:39.868Z,932.12
2023-03-14T08:39:39.856Z,932.09
2023-03-14T08:40:39.845Z,932.1
2023-03-14T08:41:39.842Z,932.01
2023-03-14T08:42:39.820Z,931.92
2023-03-14T08:43:39.802Z,932.09
2023-03-14T08:44:39.845Z,932.01
2023-03-14T08:45:39.956Z,932.12
2023-03-14T08:46:39.848Z,932.08
2023-03-14T08:47:39.759Z,932.05
2023-03-14T08:48:39.762Z,932.05
2023-03-14T08:49:39.789Z,932.07
2023-03-14T08:50:39.716Z,932.05
2023-03-14T08:51:39.711Z,932.04
2023-03-14T08:52:39.781Z,932.11
2023-03-14T08:53:39.678Z,932.07
2023-03-14T08:54:39.670Z,932.06
2023-03-14T08:55:39.660Z,932.1
2023-03-14T08:56:39.645Z,932.09
2023-03-14T08:57:39.632Z,932.05
2023-03-14T08:58:39.640Z,932.12
2023-03-14T08:59:39.928Z,932.03
2023-03-14T09:00:39.920Z,931.95
2023-03-14T09:01:39.937Z,932.01
2023-03-14T09:02:39.891Z,932.07
2023-03-14T09:03:39.903Z,932.08
2023-03-14T09:04:39.866Z,932.1
2023-03-14T09:05:39.864Z,931.98
2023-03-14T09:06:39.845Z,932.12
2023-03-14T09:07:39.868Z,932.16
2023-03-14T09:08:39.996Z,932.16
2023-03-14T09:09:39.808Z,932.05
2023-03-14T09:10:39.802Z,932.17
2023-03-14T09:11:39.795Z,932.06
2023-03-14T09:12:39.776Z,932.1
2023-03-14T09:13:39.771Z,932.2
2023-03-14T09:14:39.751Z,932.09
2023-03-14T09:15:39.747Z,932.11
2023-03-14T09:16:39.796Z,932.04
2023-03-14T09:17:39.739Z,932.15
2023-03-14T09:18:39.714Z,932.12
2023-03-14T09:19:39.693Z,932.15
2023-03-14T09:20:40.203Z,932.15
2023-03-14T09:21:40.205Z,932.16
2023-03-14T09:22:40.180Z,932.08
2023-03-14T09:23:40.181Z,932.2
2023-03-14T09:24:40.176Z,932.2
2023-03-14T09:25:40.144Z,932.26
2023-03-14T09:26:40.132Z,932.24
2023-03-14T09:27:40.120Z,932.22
2023-03-14T09:28:40.115Z,932.12
2023-03-14T09:29:40.097Z,932.2
2023-03-14T09:30:40.083Z,932.16
2023-03-14T09:31:40.108Z,932.19
2023-03-14T09:32:40.110Z,932.23
2023-03-14T09:33:40.097Z,932.16
2023-03-14T09:34:40.034Z,932.21
2023-03-14T09:35:40.045Z,932.15
2023-03-14T09:36:40.024Z,932.29
2023-03-14T09:37:40.010Z,932.32
2023-03-14T09:38:39.988Z,932.12
2023-03-14T09:39:39.981Z,932.21
2023-03-14T09:40:39.966Z,932.19
2023-03-14T09:41:39.959Z,932.08
2023-03-14T09:42:39.942Z,932.29
2023-03-14T09:43:39.931Z,932.22
2023-03-14T09:44:39.916Z,932.17
2023-03-14T09:45:39.932Z,932.15
2023-03-14T09:46:39.893Z,932.2
2023-03-14T09:47:46.387Z,932.19
2023-03-14T09:48:39.868Z,932.32
2023-03-14T09:49:39.884Z,932.17
2023-03-14T09:50:39.844Z,932.2
2023-03-14T09:51:39.832Z,932.23
2023-03-14T09:52:39.821Z,932.28
2023-03-14T09:53:39.808Z,932.34
2023-03-14T09:54:39.795Z,932.24
2023-03-14T09:55:39.780Z,932.31
2023-03-14T09:56:39.772Z,932.36
2023-03-14T09:57:39.760Z,932.28
2023-03-14T09:58:39.748Z,932.37
2023-03-14T09:59:39.735Z,932.39
2023-03-14T10:00:39.723Z,932.35
2023-03-14T10:01:39.739Z,932.37
2023-03-14T10:02:39.868Z,932.45
2023-03-14T10:03:39.685Z,932.31
2023-03-14T10:04:39.708Z,932.42
2023-03-14T10:05:39.690Z,932.38
2023-03-14T10:06:39.652Z,932.39
2023-03-14T10:07:39.652Z,932.48
2023-03-14T10:08:39.626Z,932.46
2023-03-14T10:09:39.622Z,932.41
2023-03-14T10:10:39.610Z,932.4
2023-03-14T10:11:39.590Z,932.4
2023-03-14T10:12:39.613Z,932.4
2023-03-14T10:13:39.572Z,932.38
2023-03-14T10:14:39.559Z,932.48
2023-03-14T10:15:39.543Z,932.43
2023-03-14T10:16:39.587Z,932.43
2023-03-14T10:17:39.554Z,932.49
2023-03-14T10:18:39.512Z,932.49
2023-03-14T10:19:39.497Z,932.54
2023-03-14T10:20:39.486Z,932.52
2023-03-14T10:21:39.571Z,932.45
2023-03-14T10:22:39.466Z,932.32
2023-03-14T10:23:39.451Z,932.34
2023-03-14T10:24:39.443Z,932.33
2023-03-14T10:25:39.432Z,932.45
2023-03-14T10:26:39.420Z,932.29
2023-03-14T10:27:39.409Z,932.42
2023-03-14T10:28:39.396Z,932.39
2023-03-14T10:29:39.385Z,932.41
2023-03-14T10:30:39.389Z,932.44
2023-03-14T10:31:39.363Z,932.38
2023-03-14T10:32:39.401Z,932.5
2023-03-14T10:33:39.340Z,932.48
2023-03-14T10:34:39.345Z,932.48
2023-03-14T10:35:39.334Z,932.49
2023-03-14T10:36:39.311Z,932.62
2023-03-14T10:37:39.336Z,932.54
2023-03-14T10:38:39.290Z,932.47
2023-03-14T10:39:39.279Z,932.56
2023-03-14T10:40:39.270Z,932.6
2023-03-14T10:41:39.256Z,932.56
2023-03-14T10:42:39.248Z,932.51
2023-03-14T10:43:39.235Z,932.65
2023-03-14T10:44:39.227Z,932.58
2023-03-14T10:45:39.240Z,932.61
2023-03-14T10:46:39.320Z,932.82
2023-03-14T10:47:39.193Z,932.66
2023-03-14T10:48:39.179Z,932.77
2023-03-14T10:49:39.169Z,932.71
2023-03-14T10:50:39.160Z,932.83
2023-03-14T10:51:39.148Z,932.78
2023-03-14T10:52:57.681Z,932.85
2023-03-14T10:53:39.149Z,932.82
2023-03-14T10:54:39.111Z,932.85
2023-03-14T10:55:39.102Z,932.75
2023-03-14T10:56:39.090Z,932.72
2023-03-14T10:57:39.078Z,932.73
2023-03-14T10:58:39.064Z,932.75
2023-03-14T10:59:39.056Z,932.73
2023-03-14T11:00:39.043Z,932.79
2023-03-14T11:01:39.053Z,932.81
2023-03-14T11:02:39.021Z,932.82
2023-03-14T11:03:39.014Z,932.78
2023-03-14T11:04:39.030Z,932.7
2023-03-14T11:05:38.986Z,932.83
2023-03-14T11:06:38.974Z,932.83
2023-03-14T11:07:38.967Z,932.82
2023-03-14T11:08:38.951Z,932.98
2023-03-14T11:09:38.969Z,933.01
2023-03-14T11:10:38.976Z,933.1
2023-03-14T11:11:38.918Z,933.06
2023-03-14T11:12:38.903Z,933.04
2023-03-14T11:13:38.892Z,933.03
2023-03-14T11:14:38.883Z,933.08
2023-03-14T11:15:38.912Z,933.05
2023-03-14T11:16:38.856Z,933.06
2023-03-14T11:17:38.846Z,933.03
2023-03-14T11:18:38.866Z,932.97
2023-03-14T11:19:38.865Z,932.94
2023-03-14T11:20:38.809Z,932.98
2023-03-14T11:21:38.801Z,932.96
2023-03-14T11:22:38.787Z,933.07
2023-03-14T11:23:38.775Z,932.93
2023-03-14T11:24:38.762Z,932.95
2023-03-14T11:25:38.864Z,932.96
2023-03-14T11:26:38.749Z,932.99
2023-03-14T11:27:38.726Z,932.98
2023-03-14T11:28:38.714Z,932.98
2023-03-14T11:29:38.704Z,932.96
2023-03-14T11:30:38.690Z,932.99
2023-03-14T11:31:38.714Z,933.01
2023-03-14T11:32:39.263Z,932.97
2023-03-14T11:33:38.825Z,932.96
2023-03-14T11:34:38.859Z,932.98
2023-03-14T11:35:38.975Z,932.97
2023-03-14T11:36:38.629Z,933
2023-03-14T11:37:38.606Z,932.97
2023-03-14T11:38:38.593Z,932.99
2023-03-14T11:39:38.581Z,933.03
2023-03-14T11:40:38.570Z,933
2023-03-14T11:41:38.590Z,933.01
2023-03-14T11:42:38.546Z,933.08
2023-03-14T11:43:38.534Z,933.05
2023-03-14T11:44:38.531Z,933.04
2023-03-14T11:45:38.510Z,933.03
2023-03-14T11:46:38.553Z,933.06
2023-03-14T11:47:38.487Z,933.02
2023-03-14T11:48:38.479Z,933.05
2023-03-14T11:49:38.464Z,932.98
2023-03-14T11:50:38.454Z,933.02
2023-03-14T11:51:38.447Z,933.02
2023-03-14T11:52:39.008Z,932.96
2023-03-14T11:53:38.993Z,932.93
2023-03-14T11:54:38.985Z,932.92
2023-03-14T11:55:38.972Z,932.97
2023-03-14T11:56:38.959Z,932.86
2023-03-14T11:57:38.976Z,932.92
2023-03-14T11:58:38.935Z,932.9
2023-03-14T11:59:38.920Z,932.91
2023-03-14T12:00:38.912Z,932.92
2023-03-14T12:01:38.964Z,932.9
2023-03-14T12:02:38.889Z,932.9
2023-03-14T12:03:38.912Z,933.02
2023-03-14T12:04:38.876Z,932.88
2023-03-14T12:05:38.852Z,932.92
2023-03-14T12:06:38.841Z,932.86
2023-03-14T12:07:38.828Z,932.9
2023-03-14T12:08:38.822Z,932.9
2023-03-14T12:09:38.805Z,932.85
2023-03-14T12:10:38.796Z,932.82
2023-03-14T12:11:38.785Z,932.85
2023-03-14T12:12:38.776Z,932.83
2023-03-14T12:13:38.784Z,932.85
2023-03-14T12:14:38.763Z,932.73
2023-03-14T12:15:38.736Z,932.98
2023-03-14T12:16:41.014Z,932.81
2023-03-14T12:17:38.714Z,932.83
2023-03-14T12:18:38.701Z,932.86
2023-03-14T12:19:38.691Z,932.83
2023-03-14T12:20:38.679Z,932.82
2023-03-14T12:21:38.670Z,932.86
2023-03-14T12:22:38.658Z,932.82
2023-03-14T12:23:38.645Z,932.85
2023-03-14T12:24:38.639Z,932.81
2023-03-14T12:25:38.621Z,932.82
2023-03-14T12:26:38.610Z,932.76
2023-03-14T12:27:38.601Z,932.75
2023-03-14T12:28:38.586Z,932.72
2023-03-14T12:29:38.644Z,932.71
2023-03-14T12:30:38.593Z,932.69
2023-03-14T12:31:38.608Z,932.65
2023-03-14T12:32:38.607Z,932.68
2023-03-14T12:33:38.537Z,932.69
2023-03-14T12:34:38.519Z,932.63
2023-03-14T12:35:38.570Z,932.65
2023-03-14T12:36:38.495Z,932.59
2023-03-14T12:37:38.485Z,932.53
2023-03-14T12:38:38.489Z,932.51
2023-03-14T12:39:38.460Z,932.49
2023-03-14T12:40:38.449Z,932.49
2023-03-14T12:41:38.438Z,932.52
2023-03-14T12:42:44.975Z,932.48
2023-03-14T12:43:38.418Z,932.5
2023-03-14T12:44:38.403Z,932.49
2023-03-14T12:45:38.464Z,932.52
2023-03-14T12:46:38.378Z,932.49
2023-03-14T12:47:38.371Z,932.48